createdAt,value
2018-02-22T00:00:33.577Z,63.30
2018-02-22T00:03:01.537Z,67.60
2018-02-22T00:05:29.759Z,63.80
2018-02-22T00:07:57.237Z,63.80
2018-02-22T00:10:24.741Z,68.20
2018-02-22T00:12:52.214Z,64.80
2018-02-22T00:15:19.726Z,68.40
2018-02-22T00:17:48.108Z,65.30
2018-02-22T00:20:16.430Z,64.00
2018-02-22T00:22:43.904Z,64.00
2018-02-22T00:25:11.435Z,66.60
2018-02-22T00:27:38.895Z,64.70
2018-02-22T00:30:06.403Z,66.50
2018-02-22T00:32:33.891Z,66.60
2018-02-22T00:35:02.185Z,69.80
2018-02-22T00:37:29.661Z,69.80
2018-02-22T00:39:57.150Z,66.10
2018-02-22T00:42:24.658Z,67.80
2018-02-22T00:44:52.143Z,65.50
2018-02-22T00:47:19.607Z,64.70
2018-02-22T00:49:47.108Z,68.10
2018-02-22T00:52:14.577Z,65.00
2018-02-22T00:54:42.081Z,68.90
2018-02-22T00:57:09.546Z,64.00
2018-02-22T00:59:37.069Z,66.20
2018-02-22T01:02:04.545Z,69.10
2018-02-22T01:04:32.023Z,66.00
2018-02-22T01:06:59.483Z,67.30
2018-02-22T01:09:26.966Z,66.50
2018-02-22T01:11:55.273Z,64.90
2018-02-22T01:14:22.756Z,64.80
2018-02-22T01:16:50.273Z,65.20
2018-02-22T01:19:17.769Z,66.50
2018-02-22T01:21:45.299Z,69.40
2018-02-22T01:24:12.783Z,68.20
2018-02-22T01:26:40.305Z,68.60
2018-02-22T01:29:07.782Z,68.00
2018-02-22T01:31:35.432Z,67.00
2018-02-22T01:34:02.894Z,65.80
2018-02-22T01:36:30.364Z,64.00
2018-02-22T01:38:57.854Z,66.40
2018-02-22T01:41:25.338Z,67.20
2018-02-22T01:43:53.621Z,67.50
2018-02-22T01:46:21.852Z,68.70
2018-02-22T01:48:49.365Z,68.40
2018-02-22T01:51:16.826Z,67.90
2018-02-22T01:53:44.354Z,70.80
2018-02-22T01:56:11.841Z,67.50
2018-02-22T01:58:39.341Z,69.80
2018-02-22T02:01:06.832Z,66.20
2018-02-22T02:03:35.108Z,69.40
2018-02-22T02:06:03.435Z,69.30
2018-02-22T02:08:30.939Z,66.10
2018-02-22T02:10:59.195Z,66.00
2018-02-22T02:13:26.695Z,65.20
2018-02-22T02:15:54.929Z,64.80
2018-02-22T02:18:22.434Z,64.90
2018-02-22T02:20:49.894Z,65.80
2018-02-22T02:23:17.408Z,64.20
2018-02-22T02:25:44.928Z,66.30
2018-02-22T02:28:12.434Z,66.80
2018-02-22T02:30:39.901Z,68.30
2018-02-22T02:33:08.173Z,70.50
2018-02-22T02:35:35.645Z,70.50
2018-02-22T02:38:03.947Z,71.40
2018-02-22T02:40:31.406Z,71.50
2018-02-22T02:42:58.920Z,65.90
2018-02-22T02:45:26.420Z,70.40
2018-02-22T02:47:53.911Z,68.40
2018-02-22T02:50:21.443Z,64.70
2018-02-22T02:52:49.098Z,67.90
2018-02-22T02:55:16.572Z,68.20
2018-02-22T02:57:44.072Z,65.70
2018-02-22T03:00:11.542Z,68.50
2018-02-22T03:02:39.804Z,65.60
2018-02-22T03:05:07.290Z,65.70
2018-02-22T03:07:34.779Z,67.20
2018-02-22T03:10:02.267Z,68.10
2018-02-22T03:12:29.769Z,66.70
2018-02-22T03:14:57.252Z,71.00
2018-02-22T03:17:24.771Z,67.10
2018-02-22T03:19:53.003Z,64.80
2018-02-22T03:22:20.490Z,64.80
2018-02-22T03:24:49.334Z,66.30
2018-02-22T03:27:16.794Z,67.00
2018-02-22T03:29:44.296Z,67.40
2018-02-22T03:32:11.767Z,70.40
2018-02-22T03:34:40.046Z,70.70
2018-02-22T03:37:08.286Z,63.90
2018-02-22T03:39:35.786Z,63.90
2018-02-22T03:42:03.259Z,66.50
2018-02-22T03:44:30.780Z,74.30
2018-02-22T03:46:59.024Z,65.60
2018-02-22T03:49:26.520Z,65.60
2018-02-22T03:51:54.756Z,68.40
2018-02-22T03:54:22.251Z,68.20
2018-02-22T03:56:50.500Z,72.00
2018-02-22T03:59:18.000Z,72.00
2018-02-22T04:01:45.558Z,72.20
2018-02-22T04:04:13.019Z,70.80
2018-02-22T04:06:40.594Z,73.80
2018-02-22T04:09:08.113Z,68.70
2018-02-22T04:11:36.353Z,64.70
2018-02-22T04:14:04.705Z,66.50
2018-02-22T04:16:32.176Z,66.70
2018-02-22T04:18:59.700Z,64.70
2018-02-22T04:21:27.956Z,70.80
2018-02-22T04:23:55.443Z,70.80
2018-02-22T04:26:23.016Z,68.20
2018-02-22T04:28:50.576Z,66.60
2018-02-22T04:31:18.048Z,71.80
2018-02-22T04:33:45.558Z,72.50
2018-02-22T04:36:13.805Z,70.90
2018-02-22T04:38:41.309Z,70.90
2018-02-22T04:41:08.778Z,67.20
2018-02-22T04:43:36.293Z,72.20
2018-02-22T04:46:03.768Z,69.00
2018-02-22T04:48:32.075Z,66.80
2018-02-22T04:51:00.293Z,68.20
2018-02-22T04:53:28.697Z,68.20
2018-02-22T04:55:56.944Z,67.50
2018-02-22T04:58:24.565Z,67.40
2018-02-22T05:00:52.042Z,69.10
2018-02-22T05:03:19.560Z,66.50
2018-02-22T05:05:47.792Z,68.10
2018-02-22T05:08:15.304Z,67.20
2018-02-22T05:10:42.788Z,68.60
2018-02-22T05:13:10.521Z,69.80
2018-02-22T05:15:38.004Z,69.20
2018-02-22T05:18:05.463Z,72.50
2018-02-22T05:20:32.951Z,69.10
2018-02-22T05:23:00.433Z,73.80
2018-02-22T05:25:28.704Z,69.70
2018-02-22T05:27:56.171Z,69.70
2018-02-22T05:30:24.441Z,67.30
2018-02-22T05:32:52.673Z,70.70
2018-02-22T05:35:20.174Z,70.60
2018-02-22T05:37:48.424Z,72.50
2018-02-22T05:40:15.938Z,72.30
2018-02-22T05:42:43.413Z,67.70
2018-02-22T05:45:10.920Z,72.20
2018-02-22T05:47:38.392Z,70.20
2018-02-22T05:50:06.670Z,68.50
2018-02-22T05:52:34.192Z,68.60
2018-02-22T05:55:01.679Z,66.70
2018-02-22T05:57:29.925Z,67.10
2018-02-22T05:59:57.428Z,67.00
2018-02-22T06:02:24.923Z,69.10
2018-02-22T06:04:52.429Z,67.40
2018-02-22T06:07:20.681Z,69.30
2018-02-22T06:09:48.171Z,69.20
2018-02-22T06:12:15.649Z,67.70
2018-02-22T06:14:43.138Z,67.20
2018-02-22T06:17:10.616Z,67.70
2018-02-22T06:19:38.450Z,68.90
2018-02-22T06:22:05.923Z,66.60
2018-02-22T06:24:34.850Z,69.70
2018-02-22T06:27:03.184Z,67.50
2018-02-22T06:29:30.669Z,67.30
2018-02-22T06:31:58.163Z,67.60
2018-02-22T06:34:26.430Z,69.20
2018-02-22T06:36:53.933Z,65.90
2018-02-22T06:39:21.421Z,65.10
2018-02-22T06:41:48.937Z,64.00
2018-02-22T06:44:16.406Z,63.40
2018-02-22T06:46:43.906Z,65.10
2018-02-22T06:49:12.253Z,70.00
2018-02-22T06:51:39.748Z,70.20
2018-02-22T06:54:07.980Z,66.40
2018-02-22T06:56:35.484Z,66.50
2018-02-22T06:59:03.724Z,62.70
2018-02-22T07:01:31.222Z,62.70
2018-02-22T07:03:59.469Z,64.00
2018-02-22T07:06:26.952Z,64.10
2018-02-22T07:08:55.212Z,63.70
2018-02-22T07:11:23.484Z,63.10
2018-02-22T07:13:50.975Z,63.00
2018-02-22T07:16:18.479Z,65.30
2018-02-22T07:18:45.939Z,65.80
2018-02-22T07:21:13.475Z,62.20
2018-02-22T07:23:40.927Z,61.10
2018-02-22T07:26:08.483Z,63.80
2018-02-22T07:28:35.949Z,62.40
2018-02-22T07:31:03.430Z,59.90
2018-02-22T07:33:30.915Z,62.10
2018-02-22T07:35:58.468Z,63.20
2018-02-22T07:38:25.956Z,64.90
2018-02-22T07:40:53.428Z,58.30
2018-02-22T07:43:20.940Z,60.50
2018-02-22T07:45:48.434Z,59.50
2018-02-22T07:48:15.951Z,57.80
2018-02-22T07:50:43.563Z,56.70
2018-02-22T07:53:11.051Z,58.90
2018-02-22T07:55:38.526Z,56.50
2018-02-22T07:58:06.003Z,54.10
2018-02-22T08:00:33.451Z,57.20
2018-02-22T08:03:00.958Z,56.10
2018-02-22T08:05:28.447Z,52.80
2018-02-22T08:07:55.931Z,54.90
2018-02-22T08:10:24.169Z,51.40
2018-02-22T08:12:51.697Z,51.30
2018-02-22T08:15:19.220Z,54.60
2018-02-22T08:17:46.689Z,52.10
2018-02-22T08:20:14.925Z,50.40
2018-02-22T08:22:42.412Z,50.20
2018-02-22T08:25:10.715Z,49.70
2018-02-22T08:27:38.179Z,49.80
2018-02-22T08:30:05.656Z,46.70
2018-02-22T08:32:33.174Z,47.00
2018-02-22T08:35:01.437Z,47.20
2018-02-22T08:37:29.711Z,47.60
2018-02-22T08:39:57.953Z,44.70
2018-02-22T08:42:25.475Z,44.60
2018-02-22T08:44:52.956Z,44.00
2018-02-22T08:47:20.484Z,43.70
2018-02-22T08:49:47.985Z,45.40
2018-02-22T08:52:15.470Z,44.50
2018-02-22T08:54:43.767Z,41.10
2018-02-22T08:57:11.336Z,41.00
2018-02-22T08:59:38.790Z,40.30
2018-02-22T09:02:06.255Z,42.00
2018-02-22T09:04:33.749Z,38.50
2018-02-22T09:07:01.220Z,39.30
2018-02-22T09:09:28.726Z,38.30
2018-02-22T09:11:56.211Z,36.50
2018-02-22T09:14:23.704Z,37.00
2018-02-22T09:16:51.181Z,35.10
2018-02-22T09:19:19.439Z,32.70
2018-02-22T09:21:46.946Z,32.70
2018-02-22T09:24:14.436Z,32.20
2018-02-22T09:26:41.916Z,31.60
2018-02-22T09:29:09.417Z,32.20
2018-02-22T09:31:36.879Z,32.60
2018-02-22T09:34:04.403Z,30.50
2018-02-22T09:36:32.655Z,30.00
2018-02-22T09:39:00.113Z,30.10
2018-02-22T09:41:28.378Z,30.80
2018-02-22T09:43:55.893Z,30.70
2018-02-22T09:46:23.631Z,31.30
2018-02-22T09:48:51.884Z,27.90
2018-02-22T09:51:19.350Z,27.80
2018-02-22T09:53:46.859Z,27.30
2018-02-22T09:56:14.356Z,28.90
2018-02-22T09:58:41.861Z,27.30
2018-02-22T10:01:09.341Z,27.90
2018-02-22T10:03:36.904Z,28.40
2018-02-22T10:06:04.368Z,27.20
2018-02-22T10:08:31.867Z,28.20
2018-02-22T10:10:59.345Z,27.10
2018-02-22T10:13:26.856Z,26.50
2018-02-22T10:15:54.408Z,25.60
2018-02-22T10:18:21.913Z,25.60
2018-02-22T10:20:50.140Z,26.20
2018-02-22T10:23:17.647Z,26.20
2018-02-22T10:25:45.886Z,25.70
2018-02-22T10:28:13.419Z,25.60
2018-02-22T10:30:40.895Z,24.40
2018-02-22T10:33:08.397Z,24.60
2018-02-22T10:35:36.628Z,24.80
2018-02-22T10:38:04.161Z,24.80
2018-02-22T10:40:31.635Z,25.20
2018-02-22T10:42:59.134Z,25.10
2018-02-22T10:45:27.377Z,24.90
2018-02-22T10:47:54.882Z,24.80
2018-02-22T10:50:23.112Z,24.60
2018-02-22T10:52:50.638Z,24.60
2018-02-22T10:55:18.120Z,24.10
2018-02-22T10:57:45.603Z,22.50
2018-02-22T11:00:13.079Z,22.90
2018-02-22T11:02:46.484Z,22.40
2018-02-22T11:05:14.741Z,24.70
2018-02-22T11:07:42.234Z,24.60
2018-02-22T11:10:09.715Z,24.60
2018-02-22T11:12:37.190Z,22.40
2018-02-22T11:15:04.739Z,23.00
2018-02-22T11:17:32.377Z,22.10
2018-02-22T11:19:59.868Z,22.10
2018-02-22T11:22:27.369Z,21.30
2018-02-22T11:24:55.616Z,20.80
2018-02-22T11:27:23.082Z,20.80
2018-02-22T11:29:50.588Z,23.00
2018-02-22T11:32:18.051Z,21.70
2018-02-22T11:34:45.557Z,22.90
2018-02-22T11:37:13.060Z,22.80
2018-02-22T11:39:40.553Z,21.90
2018-02-22T11:42:08.014Z,21.30
2018-02-22T11:44:35.510Z,20.50
2018-02-22T11:47:03.029Z,21.40
2018-02-22T11:49:30.529Z,21.40
2018-02-22T11:51:58.764Z,22.20
2018-02-22T11:54:26.263Z,22.30
2018-02-22T11:56:53.772Z,20.00
2018-02-22T11:59:21.276Z,21.60
2018-02-22T12:01:49.533Z,20.90
2018-02-22T12:04:17.044Z,21.00
2018-02-22T12:06:44.592Z,20.80
2018-02-22T12:09:12.073Z,20.80
2018-02-22T12:11:39.541Z,20.80
2018-02-22T12:14:07.028Z,20.20
2018-02-22T12:16:35.274Z,21.20
2018-02-22T12:19:02.802Z,21.20
2018-02-22T12:21:30.280Z,19.90
2018-02-22T12:23:57.776Z,21.20
2018-02-22T12:26:25.264Z,21.10
2018-02-22T12:28:52.763Z,20.80
2018-02-22T12:31:20.241Z,18.80
2018-02-22T12:33:47.748Z,19.80
2018-02-22T12:36:15.220Z,19.50
2018-02-22T12:38:42.745Z,18.40
2018-02-22T12:41:10.199Z,19.30
2018-02-22T12:43:37.707Z,20.20
2018-02-22T12:46:05.190Z,20.00
2018-02-22T12:48:32.726Z,19.10
2018-02-22T12:51:00.204Z,19.40
2018-02-22T12:53:27.662Z,19.80
2018-02-22T12:55:55.165Z,19.10
2018-02-22T12:58:22.642Z,19.40
2018-02-22T13:00:50.145Z,18.90
2018-02-22T13:03:19.005Z,19.00
2018-02-22T13:05:46.503Z,18.40
2018-02-22T13:08:13.978Z,18.10
2018-02-22T13:10:41.471Z,19.20
2018-02-22T13:13:08.930Z,19.00
2018-02-22T13:15:36.435Z,18.70
2018-02-22T13:18:04.670Z,19.50
2018-02-22T13:20:32.194Z,19.40
2018-02-22T13:22:59.690Z,20.40
2018-02-22T13:25:27.211Z,19.80
2018-02-22T13:27:54.727Z,20.10
2018-02-22T13:30:22.639Z,19.60
2018-02-22T13:33:01.840Z,20.60
2018-02-22T13:35:30.114Z,20.80
2018-02-22T13:38:19.112Z,20.50
2018-02-22T13:40:46.615Z,20.50
2018-02-22T13:43:14.095Z,20.90
2018-02-22T13:45:42.627Z,20.40
2018-02-22T13:48:10.115Z,20.40
2018-02-22T13:50:49.439Z,21.70
2018-02-22T13:53:16.911Z,21.20
2018-02-22T13:55:44.419Z,21.90
2018-02-22T13:58:11.900Z,22.30
2018-02-22T14:00:51.402Z,22.30
2018-02-22T14:03:18.864Z,22.20
2018-02-22T14:05:46.373Z,21.40
2018-02-22T14:08:25.761Z,21.40
2018-02-22T14:10:53.312Z,20.90
2018-02-22T14:13:20.768Z,21.10
2018-02-22T14:15:48.649Z,21.40
2018-02-22T14:18:16.136Z,20.50
2018-02-22T14:20:43.639Z,21.00
2018-02-22T14:23:11.898Z,20.90
2018-02-22T14:25:39.404Z,20.80
2018-02-22T14:28:06.929Z,20.60
2018-02-22T14:30:35.174Z,22.00
2018-02-22T14:33:02.661Z,21.80
2018-02-22T14:35:30.964Z,23.10
2018-02-22T14:37:58.440Z,23.10
2018-02-22T14:40:25.988Z,23.20
2018-02-22T14:42:53.465Z,23.70
2018-02-22T14:45:21.000Z,25.60
2018-02-22T14:47:48.478Z,25.50
2018-02-22T14:50:15.976Z,25.40
2018-02-22T14:52:44.203Z,26.50
2018-02-22T14:55:12.069Z,27.80
2018-02-22T14:57:39.518Z,29.60
2018-02-22T15:00:07.062Z,29.50
2018-02-22T15:02:34.528Z,28.50
2018-02-22T15:05:02.027Z,28.00
2018-02-22T15:07:29.483Z,28.60
2018-02-22T15:09:56.976Z,28.90
2018-02-22T15:12:25.210Z,29.60
2018-02-22T15:14:52.872Z,29.60
2018-02-22T15:17:20.337Z,30.20
2018-02-22T15:19:47.812Z,29.60
2018-02-22T15:22:15.309Z,31.50
2018-02-22T15:24:42.800Z,31.70
2018-02-22T15:27:10.305Z,33.10
2018-02-22T15:29:38.541Z,31.40
2018-02-22T15:32:06.820Z,32.20
2018-02-22T15:34:34.380Z,32.20
2018-02-22T15:37:01.879Z,30.80
2018-02-22T15:39:29.362Z,30.70
2018-02-22T15:41:57.487Z,32.40
2018-02-22T15:44:24.947Z,32.70
2018-02-22T15:46:52.482Z,31.90
2018-02-22T15:49:19.957Z,33.60
2018-02-22T15:51:47.450Z,34.30
2018-02-22T15:54:14.915Z,32.80
2018-02-22T15:56:42.417Z,33.00
2018-02-22T15:59:09.956Z,33.50
2018-02-22T16:01:37.478Z,35.40
2018-02-22T16:04:05.747Z,35.30
2018-02-22T16:06:34.036Z,36.80
2018-02-22T16:09:01.519Z,36.70
2018-02-22T16:11:29.352Z,35.30
2018-02-22T16:13:56.878Z,34.20
2018-02-22T16:16:24.375Z,35.90
2018-02-22T16:18:51.860Z,38.60
2018-02-22T16:21:19.456Z,38.70
2018-02-22T16:23:46.930Z,37.70
2018-02-22T16:26:14.442Z,35.90
2018-02-22T16:28:41.962Z,35.80
2018-02-22T16:31:09.466Z,37.20
2018-02-22T16:33:36.982Z,37.10
2018-02-22T16:36:04.483Z,38.60
2018-02-22T16:38:31.987Z,39.60
2018-02-22T16:41:00.241Z,39.40
2018-02-22T16:43:27.765Z,39.50
2018-02-22T16:45:55.232Z,39.80
2018-02-22T16:48:22.748Z,38.20
2018-02-22T16:50:50.221Z,40.00
2018-02-22T16:53:17.722Z,40.10
2018-02-22T16:55:45.198Z,39.80
2018-02-22T16:58:12.679Z,38.80
2018-02-22T17:00:40.215Z,39.50
2018-02-22T17:03:07.709Z,38.60
2018-02-22T17:05:35.959Z,39.00
2018-02-22T17:08:04.576Z,39.60
2018-02-22T17:10:32.055Z,39.50
2018-02-22T17:12:59.597Z,40.80
2018-02-22T17:15:27.065Z,40.50
2018-02-22T17:17:54.575Z,41.60
2018-02-22T17:20:22.069Z,40.90
2018-02-22T17:22:49.573Z,42.00
2018-02-22T17:25:16.544Z,43.40
2018-02-22T17:27:49.731Z,41.70
2018-02-22T17:30:23.670Z,43.50
2018-02-22T17:32:51.184Z,43.50
2018-02-22T17:35:19.421Z,44.10
2018-02-22T17:37:56.875Z,42.50
2018-02-22T17:40:39.039Z,42.30
2018-02-22T17:43:06.570Z,40.70
2018-02-22T17:45:34.057Z,40.30
2018-02-22T17:48:01.567Z,41.30
2018-02-22T17:50:29.043Z,42.00
2018-02-22T17:52:56.556Z,44.40
2018-02-22T17:55:25.781Z,45.70
2018-02-22T17:57:53.301Z,45.80
2018-02-22T18:00:21.531Z,42.60
2018-02-22T18:02:49.124Z,42.60
2018-02-22T18:05:16.624Z,45.50
2018-02-22T18:07:44.118Z,42.70
2018-02-22T18:10:12.348Z,44.00
2018-02-22T18:12:40.576Z,44.00
2018-02-22T18:15:08.062Z,44.60
2018-02-22T18:17:36.328Z,44.90
2018-02-22T18:20:03.852Z,44.90
2018-02-22T18:22:33.045Z,44.80
2018-02-22T18:25:00.800Z,44.20
2018-02-22T18:27:28.299Z,43.90
2018-02-22T18:29:55.796Z,45.20
2018-02-22T18:32:24.027Z,46.70
2018-02-22T18:34:51.520Z,46.20
2018-02-22T18:37:25.390Z,44.70
2018-02-22T18:39:52.874Z,44.70
2018-02-22T18:42:21.108Z,45.10
2018-02-22T18:44:54.275Z,45.10
2018-02-22T18:47:21.774Z,45.30
2018-02-22T18:49:49.272Z,45.50
2018-02-22T18:52:16.763Z,45.20
2018-02-22T18:54:44.306Z,44.40
2018-02-22T18:57:12.547Z,46.40
2018-02-22T18:59:40.058Z,45.80
2018-02-22T19:02:07.604Z,48.70
2018-02-22T19:04:35.101Z,47.60
2018-02-22T19:07:02.578Z,44.50
2018-02-22T19:09:30.179Z,48.00
2018-02-22T19:11:57.659Z,46.40
2018-02-22T19:14:25.152Z,46.30
2018-02-22T19:16:52.603Z,46.10
2018-02-22T19:19:20.107Z,48.50
2018-02-22T19:21:47.570Z,48.40
2018-02-22T19:24:15.134Z,47.70
2018-02-22T19:26:42.598Z,46.00
2018-02-22T19:29:10.067Z,48.40
2018-02-22T19:31:37.601Z,48.30
2018-02-22T19:34:05.112Z,49.70
2018-02-22T19:36:32.603Z,50.20
2018-02-22T19:39:00.123Z,48.30
2018-02-22T19:41:27.656Z,48.80
2018-02-22T19:43:55.149Z,48.30
2018-02-22T19:46:22.665Z,48.70
2018-02-22T19:48:50.212Z,50.50
2018-02-22T19:51:27.632Z,49.80
2018-02-22T19:53:55.116Z,47.60
2018-02-22T19:56:22.637Z,47.10
2018-02-22T19:58:50.191Z,48.50
2018-02-22T20:01:17.688Z,48.70
2018-02-22T20:03:45.221Z,49.80
2018-02-22T20:06:12.737Z,50.10
2018-02-22T20:08:40.204Z,46.70
2018-02-22T20:11:07.745Z,47.80
2018-02-22T20:13:36.036Z,49.70
2018-02-22T20:16:03.535Z,49.90
2018-02-22T20:18:31.007Z,48.90
2018-02-22T20:20:58.532Z,50.90
2018-02-22T20:23:26.016Z,48.70
2018-02-22T20:25:53.520Z,49.20
2018-02-22T20:28:20.988Z,53.40
2018-02-22T20:30:48.512Z,49.30
2018-02-22T20:33:16.765Z,48.90
2018-02-22T20:35:44.278Z,48.50
2018-02-22T20:38:11.752Z,48.90
2018-02-22T20:40:40.108Z,48.50
2018-02-22T20:43:07.617Z,55.20
2018-02-22T20:45:35.137Z,52.50
2018-02-22T20:48:02.649Z,51.20
2018-02-22T20:50:30.916Z,50.70
2018-02-22T20:52:58.387Z,50.70
2018-02-22T20:55:25.875Z,46.60
2018-02-22T20:57:53.358Z,49.90
2018-02-22T21:00:20.874Z,48.00
2018-02-22T21:02:49.107Z,50.90
2018-02-22T21:05:16.633Z,51.00
2018-02-22T21:07:44.302Z,50.10
2018-02-22T21:10:11.887Z,49.10
2018-02-22T21:12:39.366Z,50.80
2018-02-22T21:15:06.880Z,52.60
2018-02-22T21:17:34.358Z,50.40
2018-02-22T21:20:01.867Z,49.40
2018-02-22T21:22:29.348Z,49.20
2018-02-22T21:24:56.831Z,49.00
2018-02-22T21:27:24.359Z,53.80
2018-02-22T21:29:51.834Z,51.20
2018-02-22T21:32:19.344Z,50.50
2018-02-22T21:34:47.579Z,51.60
2018-02-22T21:37:15.109Z,51.60
2018-02-22T21:39:42.585Z,49.50
2018-02-22T21:42:10.074Z,49.40
2018-02-22T21:44:37.583Z,53.90
2018-02-22T21:47:05.088Z,52.80
2018-02-22T21:49:32.599Z,53.60
2018-02-22T21:52:00.158Z,53.30
2018-02-22T21:54:27.646Z,51.10
2018-02-22T21:56:55.906Z,51.70
2018-02-22T21:59:23.374Z,51.70
2018-02-22T22:01:50.881Z,52.30
2018-02-22T22:04:18.347Z,55.20
2018-02-22T22:06:46.620Z,49.00
2018-02-22T22:09:15.028Z,54.20
2018-02-22T22:11:42.523Z,54.20
2018-02-22T22:14:10.001Z,52.10
2018-02-22T22:16:38.262Z,52.00
2018-02-22T22:19:05.752Z,52.20
2018-02-22T22:21:34.024Z,51.80
2018-02-22T22:24:02.282Z,50.10
2018-02-22T22:26:29.776Z,50.10
2018-02-22T22:28:57.251Z,52.70
2018-02-22T22:31:24.752Z,50.60
2018-02-22T22:33:52.217Z,52.40
2018-02-22T22:36:19.747Z,51.40
2018-02-22T22:38:47.214Z,53.40
2018-02-22T22:41:14.731Z,51.80
2018-02-22T22:43:42.214Z,50.30
2018-02-22T22:46:09.722Z,51.80
2018-02-22T22:48:37.208Z,53.30
2018-02-22T22:51:04.761Z,53.30
2018-02-22T22:53:32.226Z,51.30
2018-02-22T22:55:59.719Z,51.10
2018-02-22T22:58:27.236Z,50.00
2018-02-22T23:00:54.743Z,53.20
2018-02-22T23:03:22.226Z,52.90
2018-02-22T23:05:49.762Z,50.00
2018-02-22T23:08:17.230Z,53.10
2018-02-22T23:10:45.710Z,50.00
2018-02-22T23:13:13.947Z,54.30
2018-02-22T23:15:41.415Z,54.00
2018-02-22T23:18:08.931Z,51.70
2018-02-22T23:20:36.412Z,52.90
2018-02-22T23:23:03.914Z,52.50
2018-02-22T23:25:32.182Z,50.80
2018-02-22T23:27:59.712Z,50.80
2018-02-22T23:30:27.208Z,51.00
2018-02-22T23:32:55.468Z,50.00
2018-02-22T23:35:22.937Z,49.90
2018-02-22T23:37:50.433Z,51.50
2018-02-22T23:40:19.535Z,52.90
2018-02-22T23:42:47.092Z,50.20
2018-02-22T23:45:14.589Z,52.10
2018-02-22T23:47:42.108Z,51.20
2018-02-22T23:50:09.567Z,52.90
2018-02-22T23:52:37.051Z,52.10
2018-02-22T23:55:04.526Z,51.00
2018-02-22T23:57:32.034Z,51.90
2018-02-22T23:59:59.504Z,52.70
